sensor_id;sensor_type;location;lat;lon;timestamp;P1;durP1;ratioP1;P2;durP2;ratioP2
69253;SDS011;56364;41.816;12.448;2023-03-02T00:00:33;4.95;;;2.40;;
69253;SDS011;56364;41.816;12.448;2023-03-02T00:03:00;12.35;;;2.85;;
69253;SDS011;56364;41.816;12.448;2023-03-02T00:05:26;6.47;;;2.45;;
69253;SDS011;56364;41.816;12.448;2023-03-02T00:10:19;3.53;;;2.13;;
69253;SDS011;56364;41.816;12.448;2023-03-02T00:12:45;5.57;;;2.45;;
69253;SDS011;56364;41.816;12.448;2023-03-02T00:15:11;6.13;;;2.53;;
69253;SDS011;56364;41.816;12.448;2023-03-02T00:17:37;10.90;;;2.60;;
69253;SDS011;56364;41.816;12.448;2023-03-02T00:20:03;4.70;;;2.17;;
69253;SDS011;56364;41.816;12.448;2023-03-02T00:25:02;3.10;;;1.92;;
69253;SDS011;56364;41.816;12.448;2023-03-02T00:27:28;6.78;;;2.70;;
69253;SDS011;56364;41.816;12.448;2023-03-02T00:29:55;8.45;;;2.53;;
69253;SDS011;56364;41.816;12.448;2023-03-02T00:32:21;4.78;;;1.88;;
69253;SDS011;56364;41.816;12.448;2023-03-02T00:34:47;6.07;;;2.60;;
69253;SDS011;56364;41.816;12.448;2023-03-02T00:37:13;5.35;;;2.63;;
69253;SDS011;56364;41.816;12.448;2023-03-02T00:39:39;5.07;;;2.53;;
69253;SDS011;56364;41.816;12.448;2023-03-02T00:42:05;4.65;;;2.58;;
69253;SDS011;56364;41.816;12.448;2023-03-02T00:44:31;5.30;;;2.45;;
69253;SDS011;56364;41.816;12.448;2023-03-02T00:46:57;3.72;;;2.25;;
69253;SDS011;56364;41.816;12.448;2023-03-02T00:49:23;5.15;;;2.03;;
69253;SDS011;56364;41.816;12.448;2023-03-02T00:51:49;9.10;;;2.92;;
69253;SDS011;56364;41.816;12.448;2023-03-02T00:54:15;5.45;;;2.33;;
69253;SDS011;56364;41.816;12.448;2023-03-02T00:56:42;3.92;;;2.05;;
69253;SDS011;56364;41.816;12.448;2023-03-02T00:59:10;6.20;;;2.40;;
69253;SDS011;56364;41.816;12.448;2023-03-02T01:01:52;5.13;;;2.70;;
69253;SDS011;56364;41.816;12.448;2023-03-02T01:04:25;5.00;;;2.50;;
69253;SDS011;56364;41.816;12.448;2023-03-02T01:06:55;5.15;;;2.40;;
69253;SDS011;56364;41.816;12.448;2023-03-02T01:09:21;4.97;;;2.10;;
69253;SDS011;56364;41.816;12.448;2023-03-02T01:11:47;3.05;;;2.15;;
69253;SDS011;56364;41.816;12.448;2023-03-02T01:14:13;5.15;;;2.53;;
69253;SDS011;56364;41.816;12.448;2023-03-02T01:16:40;3.78;;;2.10;;
69253;SDS011;56364;41.816;12.448;2023-03-02T01:19:06;4.95;;;2.25;;
69253;SDS011;56364;41.816;12.448;2023-03-02T01:21:32;4.18;;;2.00;;
69253;SDS011;56364;41.816;12.448;2023-03-02T01:26:25;5.90;;;2.45;;
69253;SDS011;56364;41.816;12.448;2023-03-02T01:28:51;6.50;;;2.30;;
69253;SDS011;56364;41.816;12.448;2023-03-02T01:31:22;4.88;;;2.13;;
69253;SDS011;56364;41.816;12.448;2023-03-02T01:33:48;4.72;;;2.08;;
69253;SDS011;56364;41.816;12.448;2023-03-02T01:36:14;5.43;;;2.35;;
69253;SDS011;56364;41.816;12.448;2023-03-02T01:38:40;6.63;;;2.15;;
69253;SDS011;56364;41.816;12.448;2023-03-02T01:41:07;3.03;;;1.90;;
69253;SDS011;56364;41.816;12.448;2023-03-02T01:43:33;4.32;;;2.60;;
69253;SDS011;56364;41.816;12.448;2023-03-02T01:46:00;5.03;;;2.30;;
69253;SDS011;56364;41.816;12.448;2023-03-02T01:48:34;4.15;;;2.20;;
69253;SDS011;56364;41.816;12.448;2023-03-02T01:51:03;4.97;;;2.13;;
69253;SDS011;56364;41.816;12.448;2023-03-02T01:55:56;4.60;;;1.92;;
69253;SDS011;56364;41.816;12.448;2023-03-02T01:58:23;5.68;;;2.08;;
69253;SDS011;56364;41.816;12.448;2023-03-02T02:00:50;6.03;;;2.75;;
69253;SDS011;56364;41.816;12.448;2023-03-02T02:03:21;4.05;;;2.13;;
69253;SDS011;56364;41.816;12.448;2023-03-02T02:05:59;5.32;;;2.65;;
69253;SDS011;56364;41.816;12.448;2023-03-02T02:08:32;4.55;;;2.65;;
69253;SDS011;56364;41.816;12.448;2023-03-02T02:10:58;4.15;;;2.10;;
69253;SDS011;56364;41.816;12.448;2023-03-02T02:13:25;5.03;;;2.33;;
69253;SDS011;56364;41.816;12.448;2023-03-02T02:15:52;6.32;;;2.60;;
69253;SDS011;56364;41.816;12.448;2023-03-02T02:18:19;5.30;;;2.58;;
69253;SDS011;56364;41.816;12.448;2023-03-02T02:20:46;9.35;;;2.97;;
69253;SDS011;56364;41.816;12.448;2023-03-02T02:38:39;3.97;;;2.20;;
69253;SDS011;56364;41.816;12.448;2023-03-02T02:41:07;5.43;;;2.10;;
69253;SDS011;56364;41.816;12.448;2023-03-02T02:43:37;3.17;;;1.85;;
69253;SDS011;56364;41.816;12.448;2023-03-02T02:46:04;5.85;;;2.13;;
69253;SDS011;56364;41.816;12.448;2023-03-02T02:50:56;6.43;;;2.40;;
69253;SDS011;56364;41.816;12.448;2023-03-02T02:56:12;6.15;;;2.25;;
69253;SDS011;56364;41.816;12.448;2023-03-02T03:01:09;5.43;;;2.17;;
69253;SDS011;56364;41.816;12.448;2023-03-02T03:03:36;5.43;;;2.08;;
69253;SDS011;56364;41.816;12.448;2023-03-02T03:06:08;5.25;;;2.30;;
69253;SDS011;56364;41.816;12.448;2023-03-02T03:08:49;3.40;;;1.73;;
69253;SDS011;56364;41.816;12.448;2023-03-02T03:13:46;4.57;;;2.28;;
69253;SDS011;56364;41.816;12.448;2023-03-02T03:16:13;3.42;;;1.95;;
69253;SDS011;56364;41.816;12.448;2023-03-02T03:18:46;4.53;;;2.30;;
69253;SDS011;56364;41.816;12.448;2023-03-02T03:21:14;3.22;;;1.85;;
69253;SDS011;56364;41.816;12.448;2023-03-02T03:23:42;4.38;;;1.90;;
69253;SDS011;56364;41.816;12.448;2023-03-02T03:26:09;3.20;;;1.90;;
69253;SDS011;56364;41.816;12.448;2023-03-02T03:31:01;4.05;;;1.73;;
69253;SDS011;56364;41.816;12.448;2023-03-02T03:33:28;3.20;;;1.95;;
69253;SDS011;56364;41.816;12.448;2023-03-02T03:35:54;4.75;;;2.50;;
69253;SDS011;56364;41.816;12.448;2023-03-02T03:38:20;4.80;;;1.75;;
69253;SDS011;56364;41.816;12.448;2023-03-02T03:40:51;3.80;;;1.88;;
69253;SDS011;56364;41.816;12.448;2023-03-02T03:43:17;2.97;;;1.85;;
69253;SDS011;56364;41.816;12.448;2023-03-02T03:45:43;3.28;;;1.75;;
69253;SDS011;56364;41.816;12.448;2023-03-02T03:48:09;3.50;;;1.70;;
69253;SDS011;56364;41.816;12.448;2023-03-02T03:50:38;2.78;;;1.50;;
69253;SDS011;56364;41.816;12.448;2023-03-02T03:53:04;4.53;;;1.50;;
69253;SDS011;56364;41.816;12.448;2023-03-02T03:55:30;3.83;;;2.00;;
69253;SDS011;56364;41.816;12.448;2023-03-02T03:57:56;5.88;;;2.22;;
69253;SDS011;56364;41.816;12.448;2023-03-02T04:00:25;3.10;;;1.50;;
69253;SDS011;56364;41.816;12.448;2023-03-02T04:02:52;4.30;;;1.92;;
69253;SDS011;56364;41.816;12.448;2023-03-02T04:05:18;4.30;;;2.00;;
69253;SDS011;56364;41.816;12.448;2023-03-02T04:07:44;4.97;;;1.83;;
69253;SDS011;56364;41.816;12.448;2023-03-02T04:10:10;3.55;;;1.92;;
69253;SDS011;56364;41.816;12.448;2023-03-02T04:12:37;8.02;;;1.63;;
69253;SDS011;56364;41.816;12.448;2023-03-02T04:15:07;3.05;;;1.90;;
69253;SDS011;56364;41.816;12.448;2023-03-02T04:17:33;4.90;;;2.15;;
69253;SDS011;56364;41.816;12.448;2023-03-02T04:19:59;3.83;;;2.05;;
69253;SDS011;56364;41.816;12.448;2023-03-02T04:22:26;4.85;;;1.92;;
69253;SDS011;56364;41.816;12.448;2023-03-02T04:24:52;4.07;;;1.88;;
69253;SDS011;56364;41.816;12.448;2023-03-02T04:27:20;5.18;;;2.65;;
69253;SDS011;56364;41.816;12.448;2023-03-02T04:29:46;3.85;;;1.90;;
69253;SDS011;56364;41.816;12.448;2023-03-02T04:32:13;4.57;;;1.63;;
69253;SDS011;56364;41.816;12.448;2023-03-02T04:34:39;3.45;;;1.88;;
69253;SDS011;56364;41.816;12.448;2023-03-02T04:37:07;2.95;;;1.67;;
69253;SDS011;56364;41.816;12.448;2023-03-02T04:39:33;2.95;;;1.80;;
69253;SDS011;56364;41.816;12.448;2023-03-02T04:42:00;2.78;;;1.58;;
69253;SDS011;56364;41.816;12.448;2023-03-02T04:44:26;2.20;;;1.60;;
69253;SDS011;56364;41.816;12.448;2023-03-02T04:46:52;3.50;;;1.23;;
69253;SDS011;56364;41.816;12.448;2023-03-02T04:49:18;3.22;;;1.30;;
69253;SDS011;56364;41.816;12.448;2023-03-02T04:51:46;6.07;;;1.60;;
69253;SDS011;56364;41.816;12.448;2023-03-02T04:54:16;3.58;;;1.48;;
69253;SDS011;56364;41.816;12.448;2023-03-02T04:56:44;2.55;;;1.70;;
69253;SDS011;56364;41.816;12.448;2023-03-02T04:59:15;2.55;;;1.30;;
69253;SDS011;56364;41.816;12.448;2023-03-02T05:04:09;2.60;;;1.38;;
69253;SDS011;56364;41.816;12.448;2023-03-02T05:06:36;3.92;;;1.35;;
69253;SDS011;56364;41.816;12.448;2023-03-02T05:11:48;2.80;;;1.48;;
69253;SDS011;56364;41.816;12.448;2023-03-02T05:14:17;5.40;;;1.70;;
69253;SDS011;56364;41.816;12.448;2023-03-02T05:16:54;5.78;;;1.85;;
69253;SDS011;56364;41.816;12.448;2023-03-02T05:19:20;4.72;;;1.73;;
69253;SDS011;56364;41.816;12.448;2023-03-02T05:21:49;4.88;;;1.80;;
69253;SDS011;56364;41.816;12.448;2023-03-02T05:24:16;5.15;;;1.75;;
69253;SDS011;56364;41.816;12.448;2023-03-02T05:26:42;3.38;;;1.42;;
69253;SDS011;56364;41.816;12.448;2023-03-02T05:29:09;3.50;;;1.63;;
69253;SDS011;56364;41.816;12.448;2023-03-02T05:31:36;3.20;;;1.55;;
69253;SDS011;56364;41.816;12.448;2023-03-02T05:34:03;6.80;;;1.55;;
69253;SDS011;56364;41.816;12.448;2023-03-02T05:49:30;4.35;;;1.92;;
69253;SDS011;56364;41.816;12.448;2023-03-02T05:52:00;4.38;;;2.13;;
69253;SDS011;56364;41.816;12.448;2023-03-02T05:54:26;3.95;;;1.85;;
69253;SDS011;56364;41.816;12.448;2023-03-02T05:56:53;4.22;;;2.20;;
69253;SDS011;56364;41.816;12.448;2023-03-02T05:59:20;2.40;;;1.40;;
69253;SDS011;56364;41.816;12.448;2023-03-02T06:01:46;2.97;;;1.13;;
69253;SDS011;56364;41.816;12.448;2023-03-02T06:04:13;2.35;;;1.35;;
69253;SDS011;56364;41.816;12.448;2023-03-02T06:06:48;4.18;;;1.48;;
69253;SDS011;56364;41.816;12.448;2023-03-02T06:09:18;4.05;;;1.67;;
69253;SDS011;56364;41.816;12.448;2023-03-02T06:11:53;2.25;;;1.17;;
69253;SDS011;56364;41.816;12.448;2023-03-02T06:14:19;2.28;;;1.38;;
69253;SDS011;56364;41.816;12.448;2023-03-02T06:16:45;2.88;;;1.48;;
69253;SDS011;56364;41.816;12.448;2023-03-02T06:19:16;3.47;;;1.30;;
69253;SDS011;56364;41.816;12.448;2023-03-02T06:21:42;2.67;;;1.30;;
69253;SDS011;56364;41.816;12.448;2023-03-02T06:24:11;4.15;;;1.33;;
69253;SDS011;56364;41.816;12.448;2023-03-02T06:26:37;3.33;;;1.38;;
69253;SDS011;56364;41.816;12.448;2023-03-02T06:29:03;2.15;;;1.10;;
69253;SDS011;56364;41.816;12.448;2023-03-02T06:31:30;6.63;;;1.40;;
69253;SDS011;56364;41.816;12.448;2023-03-02T06:36:43;3.15;;;1.40;;
69253;SDS011;56364;41.816;12.448;2023-03-02T06:39:09;2.85;;;1.45;;
69253;SDS011;56364;41.816;12.448;2023-03-02T06:41:50;3.03;;;1.45;;
69253;SDS011;56364;41.816;12.448;2023-03-02T06:44:17;3.95;;;1.73;;
69253;SDS011;56364;41.816;12.448;2023-03-02T06:46:44;4.28;;;1.52;;
69253;SDS011;56364;41.816;12.448;2023-03-02T06:49:17;2.80;;;1.50;;
69253;SDS011;56364;41.816;12.448;2023-03-02T06:51:43;4.38;;;1.60;;
69253;SDS011;56364;41.816;12.448;2023-03-02T06:54:11;2.95;;;1.27;;
69253;SDS011;56364;41.816;12.448;2023-03-02T06:59:05;2.65;;;1.30;;
69253;SDS011;56364;41.816;12.448;2023-03-02T07:01:31;3.33;;;1.13;;
69253;SDS011;56364;41.816;12.448;2023-03-02T07:04:00;3.03;;;1.50;;
69253;SDS011;56364;41.816;12.448;2023-03-02T07:08:52;2.22;;;1.42;;
69253;SDS011;56364;41.816;12.448;2023-03-02T07:11:18;2.20;;;1.30;;
69253;SDS011;56364;41.816;12.448;2023-03-02T07:13:44;1.50;;;1.02;;
69253;SDS011;56364;41.816;12.448;2023-03-02T07:16:12;2.53;;;1.35;;
69253;SDS011;56364;41.816;12.448;2023-03-02T07:18:38;1.00;;;0.70;;
69253;SDS011;56364;41.816;12.448;2023-03-02T07:21:04;1.77;;;0.88;;
69253;SDS011;56364;41.816;12.448;2023-03-02T07:23:31;3.10;;;1.13;;
69253;SDS011;56364;41.816;12.448;2023-03-02T07:25:58;1.15;;;0.85;;
69253;SDS011;56364;41.816;12.448;2023-03-02T07:28:26;2.08;;;0.75;;
69253;SDS011;56364;41.816;12.448;2023-03-02T07:30:52;2.05;;;0.88;;
69253;SDS011;56364;41.816;12.448;2023-03-02T07:35:45;1.65;;;0.57;;
69253;SDS011;56364;41.816;12.448;2023-03-02T07:38:11;2.13;;;1.02;;
69253;SDS011;56364;41.816;12.448;2023-03-02T07:40:41;4.32;;;1.05;;
69253;SDS011;56364;41.816;12.448;2023-03-02T07:43:09;2.58;;;1.13;;
69253;SDS011;56364;41.816;12.448;2023-03-02T07:45:35;3.58;;;1.48;;
69253;SDS011;56364;41.816;12.448;2023-03-02T07:48:02;3.58;;;1.10;;
69253;SDS011;56364;41.816;12.448;2023-03-02T07:50:28;1.30;;;0.88;;
69253;SDS011;56364;41.816;12.448;2023-03-02T07:52:55;4.65;;;1.58;;
69253;SDS011;56364;41.816;12.448;2023-03-02T07:55:21;8.20;;;2.45;;
69253;SDS011;56364;41.816;12.448;2023-03-02T07:57:51;5.78;;;2.95;;
69253;SDS011;56364;41.816;12.448;2023-03-02T08:00:42;10.60;;;3.45;;
69253;SDS011;56364;41.816;12.448;2023-03-02T08:03:12;11.02;;;3.17;;
69253;SDS011;56364;41.816;12.448;2023-03-02T08:05:38;11.10;;;2.42;;
69253;SDS011;56364;41.816;12.448;2023-03-02T08:08:05;4.65;;;2.40;;
69253;SDS011;56364;41.816;12.448;2023-03-02T08:10:32;6.93;;;2.53;;
69253;SDS011;56364;41.816;12.448;2023-03-02T08:12:59;6.97;;;2.03;;
69253;SDS011;56364;41.816;12.448;2023-03-02T08:15:25;6.88;;;2.45;;
69253;SDS011;56364;41.816;12.448;2023-03-02T08:17:51;6.43;;;2.00;;
69253;SDS011;56364;41.816;12.448;2023-03-02T08:20:20;6.55;;;2.17;;
69253;SDS011;56364;41.816;12.448;2023-03-02T08:22:46;4.35;;;1.30;;
69253;SDS011;56364;41.816;12.448;2023-03-02T08:25:12;3.10;;;1.67;;
69253;SDS011;56364;41.816;12.448;2023-03-02T08:27:38;5.07;;;1.52;;
69253;SDS011;56364;41.816;12.448;2023-03-02T08:30:05;6.75;;;1.67;;
69253;SDS011;56364;41.816;12.448;2023-03-02T08:32:31;3.63;;;1.45;;
69253;SDS011;56364;41.816;12.448;2023-03-02T08:34:59;3.28;;;1.38;;
69253;SDS011;56364;41.816;12.448;2023-03-02T08:37:26;3.13;;;1.20;;
69253;SDS011;56364;41.816;12.448;2023-03-02T08:39:52;6.05;;;1.65;;
69253;SDS011;56364;41.816;12.448;2023-03-02T08:42:18;3.13;;;1.00;;
69253;SDS011;56364;41.816;12.448;2023-03-02T08:44:47;2.67;;;1.42;;
69253;SDS011;56364;41.816;12.448;2023-03-02T08:57:32;2.22;;;0.90;;
69253;SDS011;56364;41.816;12.448;2023-03-02T09:00:00;1.63;;;1.02;;
69253;SDS011;56364;41.816;12.448;2023-03-02T09:02:27;3.45;;;1.10;;
69253;SDS011;56364;41.816;12.448;2023-03-02T09:04:53;2.80;;;0.70;;
69253;SDS011;56364;41.816;12.448;2023-03-02T09:07:19;8.43;;;1.30;;
69253;SDS011;56364;41.816;12.448;2023-03-02T09:09:47;1.42;;;0.73;;
69253;SDS011;56364;41.816;12.448;2023-03-02T09:14:39;3.08;;;1.02;;
69253;SDS011;56364;41.816;12.448;2023-03-02T09:17:05;2.45;;;0.80;;
69253;SDS011;56364;41.816;12.448;2023-03-02T09:19:32;4.00;;;0.80;;
69253;SDS011;56364;41.816;12.448;2023-03-02T09:22:05;0.52;;;0.40;;
69253;SDS011;56364;41.816;12.448;2023-03-02T09:24:31;1.25;;;0.40;;
69253;SDS011;56364;41.816;12.448;2023-03-02T09:26:59;0.65;;;0.40;;
69253;SDS011;56364;41.816;12.448;2023-03-02T09:29:25;1.08;;;0.22;;
69253;SDS011;56364;41.816;12.448;2023-03-02T09:31:51;0.70;;;0.40;;
69253;SDS011;56364;41.816;12.448;2023-03-02T09:34:23;5.65;;;0.40;;
69253;SDS011;56364;41.816;12.448;2023-03-02T09:36:49;3.58;;;0.50;;
69253;SDS011;56364;41.816;12.448;2023-03-02T09:39:15;2.75;;;0.30;;
69253;SDS011;56364;41.816;12.448;2023-03-02T09:42:06;0.60;;;0.32;;
69253;SDS011;56364;41.816;12.448;2023-03-02T09:47:27;2.40;;;0.30;;
69253;SDS011;56364;41.816;12.448;2023-03-02T09:52:40;0.20;;;0.20;;
69253;SDS011;56364;41.816;12.448;2023-03-02T09:57:35;0.38;;;0.20;;
69253;SDS011;56364;41.816;12.448;2023-03-02T10:02:57;1.58;;;0.57;;
69253;SDS011;56364;41.816;12.448;2023-03-02T10:05:27;2.25;;;0.30;;
69253;SDS011;56364;41.816;12.448;2023-03-02T10:07:55;1.20;;;0.40;;
69253;SDS011;56364;41.816;12.448;2023-03-02T10:10:26;2.22;;;0.98;;
69253;SDS011;56364;41.816;12.448;2023-03-02T10:22:49;1.52;;;0.47;;
69253;SDS011;56364;41.816;12.448;2023-03-02T10:27:49;0.30;;;0.30;;
69253;SDS011;56364;41.816;12.448;2023-03-02T10:30:18;0.40;;;0.20;;
69253;SDS011;56364;41.816;12.448;2023-03-02T10:32:47;6.25;;;1.08;;
69253;SDS011;56364;41.816;12.448;2023-03-02T10:35:19;5.32;;;0.75;;
69253;SDS011;56364;41.816;12.448;2023-03-02T10:37:46;2.55;;;0.43;;
69253;SDS011;56364;41.816;12.448;2023-03-02T10:40:21;3.08;;;0.40;;
69253;SDS011;56364;41.816;12.448;2023-03-02T10:42:50;2.75;;;0.40;;
69253;SDS011;56364;41.816;12.448;2023-03-02T10:45:30;0.57;;;0.30;;
69253;SDS011;56364;41.816;12.448;2023-03-02T10:48:03;2.05;;;0.55;;
69253;SDS011;56364;41.816;12.448;2023-03-02T10:50:30;1.40;;;0.43;;
69253;SDS011;56364;41.816;12.448;2023-03-02T10:52:56;0.82;;;0.40;;
69253;SDS011;56364;41.816;12.448;2023-03-02T10:55:22;0.52;;;0.20;;
69253;SDS011;56364;41.816;12.448;2023-03-02T10:58:03;2.00;;;0.50;;
69253;SDS011;56364;41.816;12.448;2023-03-02T11:00:30;0.38;;;0.20;;
69253;SDS011;56364;41.816;12.448;2023-03-02T11:02:58;0.50;;;0.20;;
69253;SDS011;56364;41.816;12.448;2023-03-02T11:07:54;0.95;;;0.30;;
69253;SDS011;56364;41.816;12.448;2023-03-02T11:10:22;1.70;;;0.50;;
69253;SDS011;56364;41.816;12.448;2023-03-02T11:12:54;1.95;;;0.30;;
69253;SDS011;56364;41.816;12.448;2023-03-02T11:15:21;0.70;;;0.50;;
69253;SDS011;56364;41.816;12.448;2023-03-02T11:17:49;0.80;;;0.20;;
69253;SDS011;56364;41.816;12.448;2023-03-02T11:20:25;1.42;;;0.40;;
69253;SDS011;56364;41.816;12.448;2023-03-02T11:25:47;0.75;;;0.40;;
69253;SDS011;56364;41.816;12.448;2023-03-02T11:30:44;1.02;;;0.30;;
69253;SDS011;56364;41.816;12.448;2023-03-02T11:33:20;0.50;;;0.30;;
69253;SDS011;56364;41.816;12.448;2023-03-02T11:35:50;0.82;;;0.30;;
69253;SDS011;56364;41.816;12.448;2023-03-02T11:38:36;1.15;;;0.50;;
69253;SDS011;56364;41.816;12.448;2023-03-02T11:44:08;0.77;;;0.30;;
69253;SDS011;56364;41.816;12.448;2023-03-02T11:46:38;5.45;;;0.50;;
69253;SDS011;56364;41.816;12.448;2023-03-02T11:49:08;1.75;;;0.30;;
69253;SDS011;56364;41.816;12.448;2023-03-02T11:51:53;0.98;;;0.40;;
69253;SDS011;56364;41.816;12.448;2023-03-02T11:54:40;0.65;;;0.22;;
69253;SDS011;56364;41.816;12.448;2023-03-02T12:05:24;0.75;;;0.52;;
69253;SDS011;56364;41.816;12.448;2023-03-02T12:10:24;1.10;;;0.35;;
69253;SDS011;56364;41.816;12.448;2023-03-02T12:13:02;1.33;;;0.30;;
69253;SDS011;56364;41.816;12.448;2023-03-02T12:15:39;0.20;;;0.13;;
69253;SDS011;56364;41.816;12.448;2023-03-02T12:18:15;1.25;;;0.40;;
69253;SDS011;56364;41.816;12.448;2023-03-02T12:21:02;4.00;;;0.50;;
69253;SDS011;56364;41.816;12.448;2023-03-02T12:23:35;1.45;;;0.30;;
69253;SDS011;56364;41.816;12.448;2023-03-02T12:26:23;3.42;;;0.20;;
69253;SDS011;56364;41.816;12.448;2023-03-02T12:28:55;0.60;;;0.35;;
69253;SDS011;56364;41.816;12.448;2023-03-02T12:31:23;1.13;;;0.55;;
69253;SDS011;56364;41.816;12.448;2023-03-02T12:33:51;0.95;;;0.50;;
69253;SDS011;56364;41.816;12.448;2023-03-02T12:36:31;0.40;;;0.40;;
69253;SDS011;56364;41.816;12.448;2023-03-02T12:44:15;0.75;;;0.65;;
69253;SDS011;56364;41.816;12.448;2023-03-02T12:46:44;3.25;;;0.50;;
69253;SDS011;56364;41.816;12.448;2023-03-02T12:54:57;1.30;;;0.82;;
69253;SDS011;56364;41.816;12.448;2023-03-02T12:57:23;2.53;;;0.73;;
69253;SDS011;56364;41.816;12.448;2023-03-02T13:02:30;7.32;;;2.80;;
69253;SDS011;56364;41.816;12.448;2023-03-02T13:07:55;1.77;;;0.70;;
69253;SDS011;56364;41.816;12.448;2023-03-02T13:13:01;1.13;;;0.57;;
69253;SDS011;56364;41.816;12.448;2023-03-02T13:15:27;1.73;;;0.70;;
69253;SDS011;56364;41.816;12.448;2023-03-02T13:17:55;3.45;;;0.60;;
69253;SDS011;56364;41.816;12.448;2023-03-02T13:20:25;1.77;;;0.50;;
69253;SDS011;56364;41.816;12.448;2023-03-02T13:22:53;1.58;;;0.60;;
69253;SDS011;56364;41.816;12.448;2023-03-02T13:25:29;2.22;;;0.68;;
69253;SDS011;56364;41.816;12.448;2023-03-02T13:27:59;3.70;;;0.65;;
69253;SDS011;56364;41.816;12.448;2023-03-02T13:30:46;1.25;;;0.70;;
69253;SDS011;56364;41.816;12.448;2023-03-02T13:33:24;0.60;;;0.50;;
69253;SDS011;56364;41.816;12.448;2023-03-02T13:35:50;2.22;;;0.88;;
69253;SDS011;56364;41.816;12.448;2023-03-02T13:38:20;2.38;;;0.50;;
69253;SDS011;56364;41.816;12.448;2023-03-02T13:40:47;4.22;;;0.60;;
69253;SDS011;56364;41.816;12.448;2023-03-02T13:43:34;1.17;;;0.75;;
69253;SDS011;56364;41.816;12.448;2023-03-02T13:46:01;5.10;;;0.75;;
69253;SDS011;56364;41.816;12.448;2023-03-02T13:48:28;1.60;;;0.77;;
69253;SDS011;56364;41.816;12.448;2023-03-02T13:50:59;1.05;;;0.55;;
69253;SDS011;56364;41.816;12.448;2023-03-02T13:53:31;3.30;;;0.77;;
69253;SDS011;56364;41.816;12.448;2023-03-02T13:56:02;10.05;;;1.02;;
69253;SDS011;56364;41.816;12.448;2023-03-02T13:58:28;7.72;;;0.98;;
69253;SDS011;56364;41.816;12.448;2023-03-02T14:00:56;2.25;;;0.90;;
69253;SDS011;56364;41.816;12.448;2023-03-02T14:03:31;1.88;;;1.20;;
69253;SDS011;56364;41.816;12.448;2023-03-02T14:05:57;3.63;;;1.05;;
69253;SDS011;56364;41.816;12.448;2023-03-02T14:08:27;2.38;;;0.80;;
69253;SDS011;56364;41.816;12.448;2023-03-02T14:10:54;0.93;;;0.52;;
69253;SDS011;56364;41.816;12.448;2023-03-02T14:13:22;1.63;;;0.85;;
69253;SDS011;56364;41.816;12.448;2023-03-02T14:15:50;3.60;;;0.70;;
69253;SDS011;56364;41.816;12.448;2023-03-02T14:21:03;0.73;;;0.43;;
69253;SDS011;56364;41.816;12.448;2023-03-02T14:23:32;2.65;;;0.60;;
69253;SDS011;56364;41.816;12.448;2023-03-02T14:28:29;2.00;;;0.43;;
69253;SDS011;56364;41.816;12.448;2023-03-02T14:30:56;1.42;;;0.65;;
69253;SDS011;56364;41.816;12.448;2023-03-02T14:33:23;3.55;;;0.47;;
69253;SDS011;56364;41.816;12.448;2023-03-02T14:35:49;3.97;;;0.50;;
69253;SDS011;56364;41.816;12.448;2023-03-02T14:38:20;0.85;;;0.43;;
69253;SDS011;56364;41.816;12.448;2023-03-02T14:40:55;2.67;;;0.50;;
69253;SDS011;56364;41.816;12.448;2023-03-02T14:43:42;0.88;;;0.30;;
69253;SDS011;56364;41.816;12.448;2023-03-02T14:46:21;1.25;;;0.47;;
69253;SDS011;56364;41.816;12.448;2023-03-02T14:48:47;0.55;;;0.25;;
69253;SDS011;56364;41.816;12.448;2023-03-02T14:51:24;3.33;;;0.50;;
69253;SDS011;56364;41.816;12.448;2023-03-02T14:53:52;0.60;;;0.22;;
69253;SDS011;56364;41.816;12.448;2023-03-02T14:56:19;1.25;;;0.32;;
69253;SDS011;56364;41.816;12.448;2023-03-02T14:58:47;0.43;;;0.20;;
69253;SDS011;56364;41.816;12.448;2023-03-02T15:01:14;1.80;;;0.25;;
69253;SDS011;56364;41.816;12.448;2023-03-02T15:03:42;0.30;;;0.30;;
69253;SDS011;56364;41.816;12.448;2023-03-02T15:06:15;4.85;;;0.38;;
69253;SDS011;56364;41.816;12.448;2023-03-02T15:08:46;1.67;;;0.32;;
69253;SDS011;56364;41.816;12.448;2023-03-02T15:11:12;3.42;;;0.50;;
69253;SDS011;56364;41.816;12.448;2023-03-02T15:13:40;1.83;;;0.40;;
69253;SDS011;56364;41.816;12.448;2023-03-02T15:16:12;0.88;;;0.40;;
69253;SDS011;56364;41.816;12.448;2023-03-02T15:18:41;1.35;;;0.40;;
69253;SDS011;56364;41.816;12.448;2023-03-02T15:21:15;0.98;;;0.50;;
69253;SDS011;56364;41.816;12.448;2023-03-02T15:26:32;0.73;;;0.40;;
69253;SDS011;56364;41.816;12.448;2023-03-02T15:29:18;1.75;;;0.38;;
69253;SDS011;56364;41.816;12.448;2023-03-02T15:31:44;2.25;;;0.50;;
69253;SDS011;56364;41.816;12.448;2023-03-02T15:34:11;1.38;;;0.60;;
69253;SDS011;56364;41.816;12.448;2023-03-02T15:36:37;0.95;;;0.52;;
69253;SDS011;56364;41.816;12.448;2023-03-02T15:39:03;2.92;;;0.75;;
69253;SDS011;56364;41.816;12.448;2023-03-02T15:41:32;1.30;;;0.50;;
69253;SDS011;56364;41.816;12.448;2023-03-02T15:43:58;1.27;;;0.57;;
69253;SDS011;56364;41.816;12.448;2023-03-02T15:46:24;3.42;;;0.60;;
69253;SDS011;56364;41.816;12.448;2023-03-02T15:48:51;1.23;;;0.52;;
69253;SDS011;56364;41.816;12.448;2023-03-02T15:51:22;2.67;;;0.52;;
69253;SDS011;56364;41.816;12.448;2023-03-02T15:53:48;2.22;;;0.60;;
69253;SDS011;56364;41.816;12.448;2023-03-02T15:56:18;0.65;;;0.50;;
69253;SDS011;56364;41.816;12.448;2023-03-02T15:58:45;2.08;;;0.40;;
69253;SDS011;56364;41.816;12.448;2023-03-02T16:01:18;2.97;;;0.50;;
69253;SDS011;56364;41.816;12.448;2023-03-02T16:04:11;3.03;;;0.73;;
69253;SDS011;56364;41.816;12.448;2023-03-02T16:06:54;0.70;;;0.50;;
69253;SDS011;56364;41.816;12.448;2023-03-02T16:12:16;1.30;;;0.77;;
69253;SDS011;56364;41.816;12.448;2023-03-02T16:38:38;1.35;;;0.85;;
69253;SDS011;56364;41.816;12.448;2023-03-02T16:41:18;0.63;;;0.50;;
69253;SDS011;56364;41.816;12.448;2023-03-02T16:43:49;1.40;;;0.60;;
69253;SDS011;56364;41.816;12.448;2023-03-02T16:46:16;5.65;;;2.40;;
69253;SDS011;56364;41.816;12.448;2023-03-02T16:48:47;2.97;;;1.45;;
69253;SDS011;56364;41.816;12.448;2023-03-02T16:51:16;2.67;;;0.90;;
69253;SDS011;56364;41.816;12.448;2023-03-02T17:09:37;6.75;;;1.13;;
69253;SDS011;56364;41.816;12.448;2023-03-02T17:12:06;3.78;;;0.98;;
69253;SDS011;56364;41.816;12.448;2023-03-02T17:25:31;1.85;;;0.73;;
69253;SDS011;56364;41.816;12.448;2023-03-02T17:28:03;1.48;;;0.50;;
69253;SDS011;56364;41.816;12.448;2023-03-02T17:30:30;3.13;;;0.88;;
69253;SDS011;56364;41.816;12.448;2023-03-02T17:32:56;3.55;;;0.80;;
69253;SDS011;56364;41.816;12.448;2023-03-02T17:35:32;2.70;;;0.70;;
69253;SDS011;56364;41.816;12.448;2023-03-02T17:38:03;1.00;;;0.68;;
69253;SDS011;56364;41.816;12.448;2023-03-02T17:56:31;2.75;;;0.80;;
69253;SDS011;56364;41.816;12.448;2023-03-02T17:59:11;1.45;;;0.68;;
69253;SDS011;56364;41.816;12.448;2023-03-02T18:01:48;4.07;;;0.77;;
69253;SDS011;56364;41.816;12.448;2023-03-02T18:04:17;9.60;;;0.93;;
69253;SDS011;56364;41.816;12.448;2023-03-02T18:07:08;2.92;;;0.60;;
69253;SDS011;56364;41.816;12.448;2023-03-02T18:09:35;2.30;;;1.00;;
69253;SDS011;56364;41.816;12.448;2023-03-02T18:12:08;2.97;;;1.05;;
69253;SDS011;56364;41.816;12.448;2023-03-02T18:14:59;2.20;;;0.70;;
69253;SDS011;56364;41.816;12.448;2023-03-02T18:17:25;2.83;;;1.00;;
69253;SDS011;56364;41.816;12.448;2023-03-02T18:19:51;6.40;;;1.08;;
69253;SDS011;56364;41.816;12.448;2023-03-02T18:27:33;6.45;;;1.27;;
69253;SDS011;56364;41.816;12.448;2023-03-02T18:30:19;1.23;;;1.00;;